sensor_id;sensor_type;location;lat;lon;timestamp;pressure;altitude;pressure_sealevel;temperature;humidity
51972;BME280;37991;49.662;10.060;2022-07-21T00:00:23;99519.22;;;20.83;100.00
51972;BME280;37991;49.662;10.060;2022-07-21T00:02:50;99518.22;;;20.76;100.00
51972;BME280;37991;49.662;10.060;2022-07-21T00:05:16;99509.41;;;20.67;100.00
51972;BME280;37991;49.662;10.060;2022-07-21T00:07:42;99501.09;;;20.70;100.00
51972;BME280;37991;49.662;10.060;2022-07-21T00:10:08;99507.25;;;20.71;100.00
51972;BME280;37991;49.662;10.060;2022-07-21T00:12:34;99508.44;;;20.60;100.00
51972;BME280;37991;49.662;10.060;2022-07-21T00:14:59;99496.94;;;20.51;100.00
51972;BME280;37991;49.662;10.060;2022-07-21T00:17:25;99492.78;;;20.49;100.00
51972;BME280;37991;49.662;10.060;2022-07-21T00:19:50;99483.78;;;20.50;100.00
51972;BME280;37991;49.662;10.060;2022-07-21T00:22:15;99478.66;;;20.56;100.00
51972;BME280;37991;49.662;10.060;2022-07-21T00:24:41;99461.03;;;20.55;100.00
51972;BME280;37991;49.662;10.060;2022-07-21T00:27:06;99464.88;;;20.53;100.00
51972;BME280;37991;49.662;10.060;2022-07-21T00:29:31;99501.13;;;20.54;100.00
51972;BME280;37991;49.662;10.060;2022-07-21T00:31:57;99492.78;;;20.57;100.00
51972;BME280;37991;49.662;10.060;2022-07-21T00:34:25;99489.94;;;20.50;100.00
51972;BME280;37991;49.662;10.060;2022-07-21T00:36:50;99481.13;;;20.50;100.00
51972;BME280;37991;49.662;10.060;2022-07-21T00:39:15;99479.00;;;20.53;100.00
51972;BME280;37991;49.662;10.060;2022-07-21T00:41:41;99478.66;;;20.56;100.00
51972;BME280;37991;49.662;10.060;2022-07-21T00:44:19;99489.81;;;20.60;100.00
51972;BME280;37991;49.662;10.060;2022-07-21T00:46:44;99484.97;;;20.63;100.00
51972;BME280;37991;49.662;10.060;2022-07-21T00:49:10;99484.81;;;20.65;100.00
51972;BME280;37991;49.662;10.060;2022-07-21T00:51:35;99501.78;;;20.56;100.00
51972;BME280;37991;49.662;10.060;2022-07-21T00:54:00;99504.94;;;20.51;100.00
51972;BME280;37991;49.662;10.060;2022-07-21T00:56:26;99513.56;;;20.45;100.00
51972;BME280;37991;49.662;10.060;2022-07-21T00:58:51;99504.59;;;20.38;100.00
51972;BME280;37991;49.662;10.060;2022-07-21T01:01:17;99502.75;;;20.38;100.00
51972;BME280;37991;49.662;10.060;2022-07-21T01:03:42;99501.25;;;20.28;100.00
51972;BME280;37991;49.662;10.060;2022-07-21T01:06:07;99508.88;;;20.23;100.00
51972;BME280;37991;49.662;10.060;2022-07-21T01:08:33;99506.41;;;20.21;100.00
51972;BME280;37991;49.662;10.060;2022-07-21T01:10:58;99516.03;;;20.22;100.00
51972;BME280;37991;49.662;10.060;2022-07-21T01:13:24;99511.56;;;20.23;100.00
51972;BME280;37991;49.662;10.060;2022-07-21T01:15:49;99505.06;;;20.25;100.00
51972;BME280;37991;49.662;10.060;2022-07-21T01:18:14;99498.28;;;20.31;100.00
51972;BME280;37991;49.662;10.060;2022-07-21T01:20:41;99491.28;;;20.30;100.00
51972;BME280;37991;49.662;10.060;2022-07-21T01:23:09;99478.00;;;20.30;100.00
51972;BME280;37991;49.662;10.060;2022-07-21T01:25:35;99467.34;;;20.30;100.00
51972;BME280;37991;49.662;10.060;2022-07-21T01:28:00;99474.31;;;20.23;100.00
51972;BME280;37991;49.662;10.060;2022-07-21T01:30:26;99473.00;;;20.18;100.00
51972;BME280;37991;49.662;10.060;2022-07-21T01:32:51;99488.81;;;20.20;100.00
51972;BME280;37991;49.662;10.060;2022-07-21T01:35:17;99493.13;;;20.21;100.00
51972;BME280;37991;49.662;10.060;2022-07-21T01:37:44;99497.41;;;20.06;100.00
51972;BME280;37991;49.662;10.060;2022-07-21T01:40:11;99503.91;;;20.11;100.00
51972;BME280;37991;49.662;10.060;2022-07-21T01:42:55;99510.88;;;20.04;100.00
51972;BME280;37991;49.662;10.060;2022-07-21T01:45:21;99519.03;;;20.11;100.00
51972;BME280;37991;49.662;10.060;2022-07-21T01:47:47;99526.69;;;20.14;100.00
51972;BME280;37991;49.662;10.060;2022-07-21T01:50:13;99532.66;;;20.16;100.00
51972;BME280;37991;49.662;10.060;2022-07-21T01:52:38;99530.81;;;20.16;100.00
51972;BME280;37991;49.662;10.060;2022-07-21T01:55:04;99531.66;;;20.09;100.00
51972;BME280;37991;49.662;10.060;2022-07-21T01:57:29;99540.78;;;20.06;100.00
51972;BME280;37991;49.662;10.060;2022-07-21T01:59:55;99537.44;;;19.96;100.00
51972;BME280;37991;49.662;10.060;2022-07-21T02:02:20;99542.13;;;20.02;100.00
51972;BME280;37991;49.662;10.060;2022-07-21T02:04:47;99540.28;;;20.03;100.00
51972;BME280;37991;49.662;10.060;2022-07-21T02:07:13;99521.84;;;20.09;100.00
51972;BME280;37991;49.662;10.060;2022-07-21T02:09:39;99524.00;;;20.06;100.00
51972;BME280;37991;49.662;10.060;2022-07-21T02:12:04;99515.53;;;20.02;100.00
51972;BME280;37991;49.662;10.060;2022-07-21T02:14:30;99516.84;;;19.98;100.00
51972;BME280;37991;49.662;10.060;2022-07-21T02:16:55;99508.56;;;20.01;100.00
51972;BME280;37991;49.662;10.060;2022-07-21T02:19:20;99500.72;;;20.00;100.00
51972;BME280;37991;49.662;10.060;2022-07-21T02:21:46;99520.16;;;20.00;100.00
51972;BME280;37991;49.662;10.060;2022-07-21T02:24:11;99523.69;;;20.01;100.00
51972;BME280;37991;49.662;10.060;2022-07-21T02:26:36;99535.28;;;20.00;100.00
51972;BME280;37991;49.662;10.060;2022-07-21T02:29:02;99536.97;;;20.01;100.00
51972;BME280;37991;49.662;10.060;2022-07-21T02:31:28;99534.13;;;20.02;100.00
51972;BME280;37991;49.662;10.060;2022-07-21T02:33:53;99539.78;;;19.99;100.00
51972;BME280;37991;49.662;10.060;2022-07-21T02:36:18;99539.59;;;19.92;100.00
51972;BME280;37991;49.662;10.060;2022-07-21T02:38:44;99544.28;;;19.98;100.00
51972;BME280;37991;49.662;10.060;2022-07-21T02:41:09;99541.41;;;19.84;100.00
51972;BME280;37991;49.662;10.060;2022-07-21T02:43:35;99536.41;;;19.81;100.00
51972;BME280;37991;49.662;10.060;2022-07-21T02:46:00;99540.75;;;19.82;100.00
51972;BME280;37991;49.662;10.060;2022-07-21T02:48:25;99545.00;;;19.66;100.00
51972;BME280;37991;49.662;10.060;2022-07-21T02:50:51;99549.94;;;19.61;100.00
51972;BME280;37991;49.662;10.060;2022-07-21T02:53:18;99556.41;;;19.59;100.00
51972;BME280;37991;49.662;10.060;2022-07-21T02:55:46;99552.91;;;19.58;100.00
51972;BME280;37991;49.662;10.060;2022-07-21T02:58:16;99561.19;;;19.47;100.00
51972;BME280;37991;49.662;10.060;2022-07-21T03:00:53;99557.00;;;19.44;100.00
51972;BME280;37991;49.662;10.060;2022-07-21T03:03:21;99560.34;;;19.46;100.00
51972;BME280;37991;49.662;10.060;2022-07-21T03:05:47;99568.47;;;19.45;100.00
51972;BME280;37991;49.662;10.060;2022-07-21T03:08:13;99571.59;;;19.40;100.00
51972;BME280;37991;49.662;10.060;2022-07-21T03:10:39;99574.06;;;19.34;100.00
51972;BME280;37991;49.662;10.060;2022-07-21T03:13:05;99569.72;;;19.33;100.00
51972;BME280;37991;49.662;10.060;2022-07-21T03:15:31;99582.56;;;19.37;100.00
51972;BME280;37991;49.662;10.060;2022-07-21T03:17:57;99579.22;;;19.35;100.00
51972;BME280;37991;49.662;10.060;2022-07-21T03:20:24;99585.34;;;19.36;100.00
51972;BME280;37991;49.662;10.060;2022-07-21T03:22:49;99578.38;;;19.35;100.00
51972;BME280;37991;49.662;10.060;2022-07-21T03:25:15;99591.16;;;19.39;100.00
51972;BME280;37991;49.662;10.060;2022-07-21T03:27:41;99593.31;;;19.36;100.00
51972;BME280;37991;49.662;10.060;2022-07-21T03:30:08;99595.34;;;19.42;100.00
51972;BME280;37991;49.662;10.060;2022-07-21T03:32:34;99606.66;;;19.44;100.00
51972;BME280;37991;49.662;10.060;2022-07-21T03:35:00;99616.59;;;19.42;100.00
51972;BME280;37991;49.662;10.060;2022-07-21T03:37:25;99611.97;;;19.44;100.00
51972;BME280;37991;49.662;10.060;2022-07-21T03:39:51;99627.91;;;19.44;100.00
51972;BME280;37991;49.662;10.060;2022-07-21T03:42:17;99626.75;;;19.46;100.00
51972;BME280;37991;49.662;10.060;2022-07-21T03:44:42;99634.72;;;19.46;100.00
51972;BME280;37991;49.662;10.060;2022-07-21T03:47:07;99625.25;;;19.44;100.00
51972;BME280;37991;49.662;10.060;2022-07-21T03:49:33;99622.59;;;19.44;100.00
51972;BME280;37991;49.662;10.060;2022-07-21T03:51:58;99631.06;;;19.47;100.00
51972;BME280;37991;49.662;10.060;2022-07-21T03:54:23;99624.63;;;19.50;100.00
51972;BME280;37991;49.662;10.060;2022-07-21T03:56:49;99620.44;;;19.47;100.00
51972;BME280;37991;49.662;10.060;2022-07-21T03:59:14;99621.28;;;19.48;100.00
51972;BME280;37991;49.662;10.060;2022-07-21T04:01:39;99628.56;;;19.46;100.00
51972;BME280;37991;49.662;10.060;2022-07-21T04:04:05;99624.63;;;19.50;100.00
51972;BME280;37991;49.662;10.060;2022-07-21T04:06:30;99627.84;;;19.36;100.00
51972;BME280;37991;49.662;10.060;2022-07-21T04:08:55;99640.41;;;19.25;100.00
51972;BME280;37991;49.662;10.060;2022-07-21T04:11:21;99648.25;;;19.09;100.00
51972;BME280;37991;49.662;10.060;2022-07-21T04:13:46;99645.53;;;19.01;100.00
51972;BME280;37991;49.662;10.060;2022-07-21T04:16:11;99636.38;;;18.95;100.00
51972;BME280;37991;49.662;10.060;2022-07-21T04:18:36;99634.38;;;18.97;100.00
51972;BME280;37991;49.662;10.060;2022-07-21T04:21:02;99636.03;;;18.98;100.00
51972;BME280;37991;49.662;10.060;2022-07-21T04:23:28;99642.22;;;18.99;100.00
51972;BME280;37991;49.662;10.060;2022-07-21T04:25:54;99634.25;;;18.99;100.00
51972;BME280;37991;49.662;10.060;2022-07-21T04:28:19;99635.44;;;19.04;100.00
51972;BME280;37991;49.662;10.060;2022-07-21T04:30:45;99634.91;;;19.01;100.00
51972;BME280;37991;49.662;10.060;2022-07-21T04:33:10;99637.56;;;19.01;100.00
51972;BME280;37991;49.662;10.060;2022-07-21T04:35:35;99645.53;;;19.01;100.00
51972;BME280;37991;49.662;10.060;2022-07-21T04:38:01;99635.59;;;19.03;100.00
51972;BME280;37991;49.662;10.060;2022-07-21T04:40:27;99635.97;;;19.08;100.00
51972;BME280;37991;49.662;10.060;2022-07-21T04:42:52;99632.31;;;19.09;100.00
51972;BME280;37991;49.662;10.060;2022-07-21T04:45:18;99643.38;;;19.04;100.00
51972;BME280;37991;49.662;10.060;2022-07-21T04:47:50;99654.22;;;19.11;100.00
51972;BME280;37991;49.662;10.060;2022-07-21T04:50:19;99652.25;;;19.13;100.00
51972;BME280;37991;49.662;10.060;2022-07-21T04:52:45;99651.56;;;19.11;100.00
51972;BME280;37991;49.662;10.060;2022-07-21T04:55:11;99651.25;;;19.14;100.00
51972;BME280;37991;49.662;10.060;2022-07-21T04:57:41;99662.34;;;19.10;100.00
51972;BME280;37991;49.662;10.060;2022-07-21T05:00:13;99671.88;;;19.20;100.00
51972;BME280;37991;49.662;10.060;2022-07-21T05:02:39;99671.44;;;19.25;100.00
51972;BME280;37991;49.662;10.060;2022-07-21T05:05:05;99666.03;;;19.35;100.00
51972;BME280;37991;49.662;10.060;2022-07-21T05:07:30;99676.66;;;19.35;100.00
51972;BME280;37991;49.662;10.060;2022-07-21T05:09:56;99678.31;;;19.36;100.00
51972;BME280;37991;49.662;10.060;2022-07-21T05:12:24;99680.34;;;19.42;100.00
51972;BME280;37991;49.662;10.060;2022-07-21T05:14:49;99679.34;;;19.43;100.00
51972;BME280;37991;49.662;10.060;2022-07-21T05:17:15;99673.06;;;19.44;100.00
51972;BME280;37991;49.662;10.060;2022-07-21T05:19:41;99668.59;;;19.44;100.00
51972;BME280;37991;49.662;10.060;2022-07-21T05:22:11;99675.03;;;19.42;100.00
51972;BME280;37991;49.662;10.060;2022-07-21T05:24:37;99680.72;;;19.47;100.00
51972;BME280;37991;49.662;10.060;2022-07-21T05:27:03;99674.09;;;19.51;100.00
51972;BME280;37991;49.662;10.060;2022-07-21T05:29:28;99671.44;;;19.51;100.00
51972;BME280;37991;49.662;10.060;2022-07-21T05:31:54;99676.44;;;19.54;100.00
51972;BME280;37991;49.662;10.060;2022-07-21T05:34:19;99675.97;;;19.59;100.00
51972;BME280;37991;49.662;10.060;2022-07-21T05:36:44;99676.50;;;19.62;100.00
51972;BME280;37991;49.662;10.060;2022-07-21T05:39:10;99675.06;;;19.68;100.00
51972;BME280;37991;49.662;10.060;2022-07-21T05:41:35;99680.56;;;19.74;100.00
51972;BME280;37991;49.662;10.060;2022-07-21T05:44:00;99681.06;;;19.78;100.00
51972;BME280;37991;49.662;10.060;2022-07-21T05:46:26;99681.63;;;19.82;100.00
51972;BME280;37991;49.662;10.060;2022-07-21T05:48:53;99692.44;;;19.88;100.00
51972;BME280;37991;49.662;10.060;2022-07-21T05:51:19;99692.66;;;19.95;100.00
51972;BME280;37991;49.662;10.060;2022-07-21T05:53:44;99678.34;;;19.96;100.00
51972;BME280;37991;49.662;10.060;2022-07-21T05:56:10;99683.34;;;19.99;100.00
51972;BME280;37991;49.662;10.060;2022-07-21T05:58:35;99691.19;;;20.09;100.00
51972;BME280;37991;49.662;10.060;2022-07-21T06:01:01;99689.41;;;20.17;100.00
51972;BME280;37991;49.662;10.060;2022-07-21T06:03:46;99693.31;;;20.39;100.00
51972;BME280;37991;49.662;10.060;2022-07-21T06:06:14;99693.22;;;20.57;100.00
51972;BME280;37991;49.662;10.060;2022-07-21T06:08:42;99691.94;;;20.78;100.00
51972;BME280;37991;49.662;10.060;2022-07-21T06:11:09;99694.75;;;20.76;99.19
51972;BME280;37991;49.662;10.060;2022-07-21T06:13:35;99707.53;;;20.73;99.81
51972;BME280;37991;49.662;10.060;2022-07-21T06:16:01;99709.06;;;20.83;98.77
51972;BME280;37991;49.662;10.060;2022-07-21T06:18:26;99721.88;;;20.88;98.17
51972;BME280;37991;49.662;10.060;2022-07-21T06:20:51;99724.38;;;20.89;99.00
51972;BME280;37991;49.662;10.060;2022-07-21T06:23:17;99723.41;;;20.90;98.57
51972;BME280;37991;49.662;10.060;2022-07-21T06:25:43;99717.72;;;21.02;97.52
51972;BME280;37991;49.662;10.060;2022-07-21T06:28:08;99725.25;;;21.06;96.44
51972;BME280;37991;49.662;10.060;2022-07-21T06:30:34;99721.25;;;21.10;96.40
51972;BME280;37991;49.662;10.060;2022-07-21T06:32:59;99720.56;;;21.17;95.58
51972;BME280;37991;49.662;10.060;2022-07-21T06:35:24;99729.22;;;21.10;95.09
51972;BME280;37991;49.662;10.060;2022-07-21T06:37:50;99730.56;;;21.31;94.61
51972;BME280;37991;49.662;10.060;2022-07-21T06:40:15;99730.56;;;21.55;93.86
51972;BME280;37991;49.662;10.060;2022-07-21T06:42:41;99736.53;;;21.74;91.80
51972;BME280;37991;49.662;10.060;2022-07-21T06:45:07;99733.09;;;22.04;88.08
51972;BME280;37991;49.662;10.060;2022-07-21T06:47:33;99733.25;;;22.11;89.40
51972;BME280;37991;49.662;10.060;2022-07-21T06:49:59;99735.44;;;22.08;88.69
51972;BME280;37991;49.662;10.060;2022-07-21T06:52:29;99743.63;;;21.98;88.60
51972;BME280;37991;49.662;10.060;2022-07-21T06:54:54;99742.66;;;21.91;88.29
51972;BME280;37991;49.662;10.060;2022-07-21T06:57:19;99745.00;;;21.94;87.40
51972;BME280;37991;49.662;10.060;2022-07-21T06:59:45;99741.84;;;21.90;87.03
51972;BME280;37991;49.662;10.060;2022-07-21T07:02:10;99735.78;;;22.21;86.56
51972;BME280;37991;49.662;10.060;2022-07-21T07:04:35;99735.09;;;22.81;83.34
51972;BME280;37991;49.662;10.060;2022-07-21T07:07:01;99740.41;;;23.35;81.23
51972;BME280;37991;49.662;10.060;2022-07-21T07:09:26;99731.41;;;24.04;79.71
51972;BME280;37991;49.662;10.060;2022-07-21T07:11:52;99732.13;;;24.42;75.84
51972;BME280;37991;49.662;10.060;2022-07-21T07:14:18;99732.47;;;24.90;73.97
51972;BME280;37991;49.662;10.060;2022-07-21T07:16:43;99744.53;;;25.22;70.92
51972;BME280;37991;49.662;10.060;2022-07-21T07:19:09;99735.84;;;25.42;68.46
51972;BME280;37991;49.662;10.060;2022-07-21T07:21:34;99736.44;;;25.16;70.01
51972;BME280;37991;49.662;10.060;2022-07-21T07:23:59;99737.69;;;24.77;69.28
51972;BME280;37991;49.662;10.060;2022-07-21T07:26:29;99734.97;;;24.55;71.92
51972;BME280;37991;49.662;10.060;2022-07-21T07:28:55;99736.47;;;24.13;71.65
51972;BME280;37991;49.662;10.060;2022-07-21T07:31:20;99732.84;;;24.21;73.39
51972;BME280;37991;49.662;10.060;2022-07-21T07:33:46;99742.03;;;24.42;71.86
51972;BME280;37991;49.662;10.060;2022-07-21T07:36:11;99738.09;;;24.59;71.98
51972;BME280;37991;49.662;10.060;2022-07-21T07:38:39;99741.63;;;24.81;70.25
51972;BME280;37991;49.662;10.060;2022-07-21T07:41:04;99736.59;;;24.71;72.35
51972;BME280;37991;49.662;10.060;2022-07-21T07:43:30;99737.00;;;24.90;68.54
51972;BME280;37991;49.662;10.060;2022-07-21T07:45:56;99742.00;;;25.14;66.94
51972;BME280;37991;49.662;10.060;2022-07-21T07:48:21;99730.38;;;25.28;66.23
51972;BME280;37991;49.662;10.060;2022-07-21T07:50:47;99725.38;;;25.47;67.37
51972;BME280;37991;49.662;10.060;2022-07-21T07:53:12;99726.50;;;25.59;67.02
51972;BME280;37991;49.662;10.060;2022-07-21T07:55:37;99726.50;;;25.59;65.87
51972;BME280;37991;49.662;10.060;2022-07-21T07:58:03;99730.63;;;25.34;66.12
51972;BME280;37991;49.662;10.060;2022-07-21T08:00:28;99730.84;;;25.60;66.30
51972;BME280;37991;49.662;10.060;2022-07-21T08:02:53;99731.19;;;25.50;65.79
51972;BME280;37991;49.662;10.060;2022-07-21T08:05:19;99732.28;;;25.13;67.20
51972;BME280;37991;49.662;10.060;2022-07-21T08:07:44;99729.22;;;25.38;65.69
51972;BME280;37991;49.662;10.060;2022-07-21T08:10:12;99729.75;;;25.55;65.68
51972;BME280;37991;49.662;10.060;2022-07-21T08:12:38;99728.97;;;25.61;65.71
51972;BME280;37991;49.662;10.060;2022-07-21T08:15:04;99730.91;;;25.73;65.65
51972;BME280;37991;49.662;10.060;2022-07-21T08:17:30;99726.88;;;25.84;65.15
51972;BME280;37991;49.662;10.060;2022-07-21T08:19:55;99731.03;;;26.28;64.61
51972;BME280;37991;49.662;10.060;2022-07-21T08:22:20;99731.88;;;26.29;63.81
51972;BME280;37991;49.662;10.060;2022-07-21T08:24:46;99734.31;;;26.58;63.14
51972;BME280;37991;49.662;10.060;2022-07-21T08:27:12;99721.09;;;26.77;61.98
51972;BME280;37991;49.662;10.060;2022-07-21T08:29:37;99737.06;;;26.37;61.47
51972;BME280;37991;49.662;10.060;2022-07-21T08:32:03;99725.38;;;26.10;62.48
51972;BME280;37991;49.662;10.060;2022-07-21T08:34:28;99736.47;;;26.41;61.78
51972;BME280;37991;49.662;10.060;2022-07-21T08:36:54;99738.22;;;26.56;60.81
51972;BME280;37991;49.662;10.060;2022-07-21T08:39:19;99737.03;;;26.78;58.94
51972;BME280;37991;49.662;10.060;2022-07-21T08:41:45;99738.88;;;26.71;58.72
51972;BME280;37991;49.662;10.060;2022-07-21T08:44:10;99738.88;;;26.71;59.79
51972;BME280;37991;49.662;10.060;2022-07-21T08:46:43;99735.63;;;27.02;59.47
51972;BME280;37991;49.662;10.060;2022-07-21T08:49:13;99731.13;;;27.36;58.25
51972;BME280;37991;49.662;10.060;2022-07-21T08:51:39;99742.31;;;27.26;57.01
51972;BME280;37991;49.662;10.060;2022-07-21T08:54:04;99731.09;;;27.09;56.95
51972;BME280;37991;49.662;10.060;2022-07-21T08:56:29;99729.00;;;27.11;58.86
51972;BME280;37991;49.662;10.060;2022-07-21T08:58:55;99732.19;;;26.54;58.79
51972;BME280;37991;49.662;10.060;2022-07-21T09:01:21;99730.03;;;26.29;58.77
51972;BME280;37991;49.662;10.060;2022-07-21T09:03:52;99736.31;;;25.80;60.76
51972;BME280;37991;49.662;10.060;2022-07-21T09:06:18;99738.19;;;25.80;61.82
51972;BME280;37991;49.662;10.060;2022-07-21T09:08:53;99738.97;;;25.45;62.50
51972;BME280;37991;49.662;10.060;2022-07-21T09:11:27;99734.31;;;25.33;62.74
51972;BME280;37991;49.662;10.060;2022-07-21T09:14:10;99737.88;;;24.75;64.25
51972;BME280;37991;49.662;10.060;2022-07-21T09:16:38;99738.78;;;24.82;64.09
51972;BME280;37991;49.662;10.060;2022-07-21T09:19:05;99736.00;;;25.12;63.99
51972;BME280;37991;49.662;10.060;2022-07-21T09:21:32;99734.31;;;25.33;63.54
51972;BME280;37991;49.662;10.060;2022-07-21T09:24:15;99727.66;;;25.50;63.44
51972;BME280;37991;49.662;10.060;2022-07-21T09:29:25;99725.19;;;25.27;61.72
51972;BME280;37991;49.662;10.060;2022-07-21T09:31:50;99720.25;;;25.24;61.70
51972;BME280;37991;49.662;10.060;2022-07-21T09:34:16;99710.56;;;25.29;61.79
51972;BME280;37991;49.662;10.060;2022-07-21T09:36:56;99711.19;;;25.53;60.95
51972;BME280;37991;49.662;10.060;2022-07-21T09:39:45;99710.50;;;26.07;61.10
51972;BME280;37991;49.662;10.060;2022-07-21T09:42:32;99714.94;;;26.28;59.23
51972;BME280;37991;49.662;10.060;2022-07-21T09:45:04;99714.66;;;26.58;59.33
51972;BME280;37991;49.662;10.060;2022-07-21T09:47:32;99716.78;;;26.76;57.76
51972;BME280;37991;49.662;10.060;2022-07-21T09:49:58;99717.00;;;26.74;58.18
51972;BME280;37991;49.662;10.060;2022-07-21T09:52:30;99719.94;;;27.06;57.61
51972;BME280;37991;49.662;10.060;2022-07-21T09:55:07;99729.00;;;26.98;57.16
51972;BME280;37991;49.662;10.060;2022-07-21T09:57:33;99713.91;;;26.77;55.30
51972;BME280;37991;49.662;10.060;2022-07-21T10:00:00;99720.28;;;26.76;56.80
51972;BME280;37991;49.662;10.060;2022-07-21T10:02:28;99719.88;;;26.73;55.81
51972;BME280;37991;49.662;10.060;2022-07-21T10:04:59;99711.22;;;26.84;55.28
51972;BME280;37991;49.662;10.060;2022-07-21T10:07:26;99719.47;;;26.82;55.34
51972;BME280;37991;49.662;10.060;2022-07-21T10:09:53;99713.66;;;26.65;55.39
51972;BME280;37991;49.662;10.060;2022-07-21T10:12:19;99712.66;;;26.32;56.08
51972;BME280;37991;49.662;10.060;2022-07-21T10:14:45;99719.75;;;26.46;56.09
51972;BME280;37991;49.662;10.060;2022-07-21T10:17:13;99718.44;;;26.29;56.70
51972;BME280;37991;49.662;10.060;2022-07-21T10:22:40;99723.94;;;26.07;58.14
51972;BME280;37991;49.662;10.060;2022-07-21T10:25:09;99718.44;;;25.87;56.66
51972;BME280;37991;49.662;10.060;2022-07-21T10:27:35;99714.78;;;25.95;55.77
51972;BME280;37991;49.662;10.060;2022-07-21T10:30:03;99698.69;;;25.95;55.96
51972;BME280;37991;49.662;10.060;2022-07-21T10:32:35;99703.66;;;25.98;56.59
51972;BME280;37991;49.662;10.060;2022-07-21T10:37:49;99703.19;;;26.29;55.71
51972;BME280;37991;49.662;10.060;2022-07-21T10:45:39;99668.72;;;26.39;55.66
51972;BME280;37991;49.662;10.060;2022-07-21T10:48:07;99671.88;;;26.50;55.36
51972;BME280;37991;49.662;10.060;2022-07-21T10:50:39;99683.28;;;26.65;55.75
51972;BME280;37991;49.662;10.060;2022-07-21T10:53:12;99677.50;;;26.61;54.07
51972;BME280;37991;49.662;10.060;2022-07-21T10:55:45;99680.97;;;26.55;54.17
51972;BME280;37991;49.662;10.060;2022-07-21T11:03:26;99673.97;;;26.13;54.68
51972;BME280;37991;49.662;10.060;2022-07-21T11:08:41;99665.81;;;26.41;53.84
51972;BME280;37991;49.662;10.060;2022-07-21T11:11:14;99668.72;;;26.39;53.48
51972;BME280;37991;49.662;10.060;2022-07-21T11:14:08;99667.84;;;26.32;52.18
51972;BME280;37991;49.662;10.060;2022-07-21T11:21:52;99658.81;;;26.40;52.90
51972;BME280;37991;49.662;10.060;2022-07-21T11:24:22;99647.47;;;26.51;52.05
51972;BME280;37991;49.662;10.060;2022-07-21T11:26:59;99668.81;;;26.66;51.60
51972;BME280;37991;49.662;10.060;2022-07-21T11:29:25;99657.00;;;26.54;51.13
51972;BME280;37991;49.662;10.060;2022-07-21T11:31:51;99647.94;;;26.68;51.93
51972;BME280;37991;49.662;10.060;2022-07-21T11:34:18;99651.69;;;26.80;52.22
51972;BME280;37991;49.662;10.060;2022-07-21T11:36:44;99647.13;;;26.87;51.54
51972;BME280;37991;49.662;10.060;2022-07-21T11:39:14;99638.25;;;27.00;50.25
51972;BME280;37991;49.662;10.060;2022-07-21T11:41:41;99649.41;;;27.04;51.20
51972;BME280;37991;49.662;10.060;2022-07-21T11:44:09;99646.31;;;27.00;51.37
51972;BME280;37991;49.662;10.060;2022-07-21T11:46:46;99650.88;;;27.00;51.27
51972;BME280;37991;49.662;10.060;2022-07-21T11:49:11;99636.56;;;26.86;50.59
51972;BME280;37991;49.662;10.060;2022-07-21T11:51:37;99638.84;;;26.96;50.42
51972;BME280;37991;49.662;10.060;2022-07-21T11:54:02;99634.53;;;26.88;50.22
51972;BME280;37991;49.662;10.060;2022-07-21T11:56:28;99620.69;;;26.78;50.76
51972;BME280;37991;49.662;10.060;2022-07-21T11:59:10;99638.03;;;26.75;50.59
51972;BME280;37991;49.662;10.060;2022-07-21T12:04:42;99634.06;;;26.51;49.23
51972;BME280;37991;49.662;10.060;2022-07-21T12:09:39;99620.44;;;26.66;50.03
51972;BME280;37991;49.662;10.060;2022-07-21T12:12:05;99612.41;;;26.73;49.10
51972;BME280;37991;49.662;10.060;2022-07-21T12:14:49;99625.00;;;26.72;48.49
51972;BME280;37991;49.662;10.060;2022-07-21T12:17:17;99621.28;;;26.80;48.95
51972;BME280;37991;49.662;10.060;2022-07-21T12:19:43;99623.78;;;26.88;47.25
51972;BME280;37991;49.662;10.060;2022-07-21T12:22:09;99623.53;;;26.96;48.06
51972;BME280;37991;49.662;10.060;2022-07-21T12:24:52;99629.75;;;26.83;47.23
51972;BME280;37991;49.662;10.060;2022-07-21T12:27:18;99619.00;;;26.83;47.31
51972;BME280;37991;49.662;10.060;2022-07-21T12:29:44;99615.72;;;26.88;47.29
51972;BME280;37991;49.662;10.060;2022-07-21T12:32:09;99633.06;;;26.92;47.56
51972;BME280;37991;49.662;10.060;2022-07-21T12:34:48;99632.66;;;26.95;46.97
51972;BME280;37991;49.662;10.060;2022-07-21T12:37:14;99628.50;;;26.79;47.88
51972;BME280;37991;49.662;10.060;2022-07-21T12:39:40;99616.53;;;26.69;46.98
51972;BME280;37991;49.662;10.060;2022-07-21T12:42:32;99630.16;;;26.74;48.11
51972;BME280;37991;49.662;10.060;2022-07-21T12:44:58;99640.53;;;26.90;46.77
51972;BME280;37991;49.662;10.060;2022-07-21T12:47:24;99627.28;;;26.95;46.32
51972;BME280;37991;49.662;10.060;2022-07-21T12:50:01;99632.66;;;26.95;46.51
51972;BME280;37991;49.662;10.060;2022-07-21T12:52:27;99622.72;;;26.76;46.73
51972;BME280;37991;49.662;10.060;2022-07-21T12:54:53;99623.78;;;26.75;47.11
51972;BME280;37991;49.662;10.060;2022-07-21T12:57:19;99633.69;;;26.87;47.86
51972;BME280;37991;49.662;10.060;2022-07-21T12:59:44;99613.63;;;26.83;47.31
51972;BME280;37991;49.662;10.060;2022-07-21T13:02:10;99634.94;;;26.85;47.51
51972;BME280;37991;49.662;10.060;2022-07-21T13:04:35;99628.75;;;26.91;45.47
51972;BME280;37991;49.662;10.060;2022-07-21T13:07:01;99616.13;;;26.98;45.78
51972;BME280;37991;49.662;10.060;2022-07-21T13:09:26;99625.63;;;27.07;45.72
51972;BME280;37991;49.662;10.060;2022-07-21T13:11:52;99618.59;;;27.06;44.55
51972;BME280;37991;49.662;10.060;2022-07-21T13:14:18;99621.91;;;27.02;45.33
51972;BME280;37991;49.662;10.060;2022-07-21T13:16:43;99615.28;;;27.04;45.86